Gulfport Biloxi International Airport
KGPT : now visible

Airfield :











YOU CAN JOIN US ON...

 
LOGIN :

Register | Disclaimer

   EN    FR    IT 

 









Legend :    VFR   Marginal VFR   IFR   Intensive IFR   Very Intensive IFR
Visi :
Ceiling :
>= 8 km
>= 3000ft
5 to 8 km
1000 to 3000 ft
1500m to 5 km
500 to 1000 ft
800 to 1500m
200 to 500 ft
< 800m
< 200 ft
Symbols :   Thunderstorms  Fog  Heavy snow  Heavy precipitations  Wind > 20 kt






- Airport Elevation : 28 ft
- IATA code : GPT


KGPT - Gulfport Biloxi International

CURRENT METAR :
  • 161153Z 00000KT 1/4SM FG VV002 18/18 A3002 RMK AO2 SLP164 T01830178 10194 20172 53008 RVRNO

EXPIRED METARs :
  • 161053Z AUTO 14004KT 1/4SM FG VV002 18/17 A3000 RMK AO2 SLP158 T01780172 RVRNO
  • 161021Z AUTO 17003KT 1/2SM FG VV002 18/17 A3000 RMK AO2 T01830172 RVRNO
  • 161003Z AUTO 00000KT 2SM BR OVC002 18/17 A3000 RMK AO2 T01830172
  • 160953Z AUTO VRB03KT 4SM BR OVC003 18/17 A3000 RMK AO2 SLP157 T01830172

TAF KGPT
Valid from the 16 at 12:00 until the 17 at 12:00 UTC


161127Z 1612/1712 14004KT 1/4SM FG VV002
FM161800 15012KT P6SM VCSH OVC025
FM162200 15012KT P6SM SCT040 OVC045
FM170500 19010KT 6SM BR VCSH OVC020



MET'MAP, your aeronautical weather chart ! - Copyright ORBIFLY December 2007 - Disclaimer

ORBIFLY MET'MAP TEAM :

Programming & Development : Alexandra Zaïnal
Concept & original design : Baudouin d'Aumeries
Assistance for programming : Marc-Olivier Méhu
Technical & hardware support : Manuel Goepfert

Contact : metmap@orbifly.com




SOURCES & CREDITS :

   NOAA       Earth
Advisory